sensor_id;sensor_type;location;lat;lon;timestamp;pressure;altitude;pressure_sealevel;temperature;humidity
47753;BME280;2038;51.728;6.674;2023-08-30T00:00:59;100214.47;;;14.84;100.00
47753;BME280;2038;51.728;6.674;2023-08-30T00:03:26;100213.78;;;14.88;100.00
47753;BME280;2038;51.728;6.674;2023-08-30T00:05:52;100218.06;;;14.89;100.00
47753;BME280;2038;51.728;6.674;2023-08-30T00:08:18;100216.34;;;14.88;100.00
47753;BME280;2038;51.728;6.674;2023-08-30T00:10:46;100211.22;;;14.88;100.00
47753;BME280;2038;51.728;6.674;2023-08-30T00:13:12;100212.03;;;14.87;100.00
47753;BME280;2038;51.728;6.674;2023-08-30T00:15:38;100208.59;;;14.86;100.00
47753;BME280;2038;51.728;6.674;2023-08-30T00:18:05;100211.97;;;14.85;100.00
47753;BME280;2038;51.728;6.674;2023-08-30T00:20:31;100207.09;;;14.91;100.00
47753;BME280;2038;51.728;6.674;2023-08-30T00:22:58;100214.78;;;14.91;100.00
47753;BME280;2038;51.728;6.674;2023-08-30T00:25:24;100207.25;;;14.96;100.00
47753;BME280;2038;51.728;6.674;2023-08-30T00:27:50;100215.81;;;14.96;100.00
47753;BME280;2038;51.728;6.674;2023-08-30T00:30:17;100210.75;;;14.98;100.00
47753;BME280;2038;51.728;6.674;2023-08-30T00:32:43;100207.50;;;15.02;100.00
47753;BME280;2038;51.728;6.674;2023-08-30T00:35:10;100209.16;;;15.02;100.00
47753;BME280;2038;51.728;6.674;2023-08-30T00:37:36;100205.53;;;14.96;100.00
47753;BME280;2038;51.728;6.674;2023-08-30T00:40:03;100206.56;;;15.00;100.00
47753;BME280;2038;51.728;6.674;2023-08-30T00:42:29;100204.91;;;15.02;100.00
47753;BME280;2038;51.728;6.674;2023-08-30T00:44:56;100212.50;;;14.99;100.00
47753;BME280;2038;51.728;6.674;2023-08-30T00:47:22;100204.63;;;14.94;100.00
47753;BME280;2038;51.728;6.674;2023-08-30T00:49:48;100203.75;;;14.94;100.00
47753;BME280;2038;51.728;6.674;2023-08-30T00:52:15;100198.44;;;14.89;100.00
47753;BME280;2038;51.728;6.674;2023-08-30T00:54:41;100205.13;;;14.86;100.00
47753;BME280;2038;51.728;6.674;2023-08-30T00:57:08;100197.50;;;14.87;100.00
47753;BME280;2038;51.728;6.674;2023-08-30T00:59:35;100197.56;;;14.89;100.00
47753;BME280;2038;51.728;6.674;2023-08-30T01:02:03;100201.66;;;14.84;100.00
47753;BME280;2038;51.728;6.674;2023-08-30T01:04:30;100196.56;;;14.85;100.00
47753;BME280;2038;51.728;6.674;2023-08-30T01:06:57;100193.78;;;14.79;100.00
47753;BME280;2038;51.728;6.674;2023-08-30T01:09:24;100189.16;;;14.71;100.00
47753;BME280;2038;51.728;6.674;2023-08-30T01:12:04;100190.72;;;14.67;100.00
47753;BME280;2038;51.728;6.674;2023-08-30T01:14:53;100193.97;;;14.63;100.00
47753;BME280;2038;51.728;6.674;2023-08-30T01:17:44;100189.06;;;14.69;100.00
47753;BME280;2038;51.728;6.674;2023-08-30T01:20:15;100184.81;;;14.70;100.00
47753;BME280;2038;51.728;6.674;2023-08-30T01:23:07;100181.53;;;14.72;100.00
47753;BME280;2038;51.728;6.674;2023-08-30T01:26:26;100186.50;;;14.69;100.00
47753;BME280;2038;51.728;6.674;2023-08-30T01:29:03;100176.03;;;14.63;100.00
47753;BME280;2038;51.728;6.674;2023-08-30T01:31:34;100179.31;;;14.61;100.00
47753;BME280;2038;51.728;6.674;2023-08-30T01:34:02;100182.75;;;14.61;100.00
47753;BME280;2038;51.728;6.674;2023-08-30T01:36:31;100174.16;;;14.59;100.00
47753;BME280;2038;51.728;6.674;2023-08-30T01:38:59;100173.34;;;14.60;100.00
47753;BME280;2038;51.728;6.674;2023-08-30T01:41:27;100175.94;;;14.62;100.00
47753;BME280;2038;51.728;6.674;2023-08-30T01:43:54;100170.94;;;14.65;100.00
47753;BME280;2038;51.728;6.674;2023-08-30T01:46:23;100169.75;;;14.57;100.00
47753;BME280;2038;51.728;6.674;2023-08-30T01:48:50;100168.03;;;14.56;100.00
47753;BME280;2038;51.728;6.674;2023-08-30T01:51:17;100160.88;;;14.48;100.00
47753;BME280;2038;51.728;6.674;2023-08-30T01:53:45;100161.94;;;14.53;100.00
47753;BME280;2038;51.728;6.674;2023-08-30T01:56:12;100168.84;;;14.55;100.00
47753;BME280;2038;51.728;6.674;2023-08-30T01:58:38;100162.91;;;14.56;100.00
47753;BME280;2038;51.728;6.674;2023-08-30T02:01:05;100169.81;;;14.58;100.00
47753;BME280;2038;51.728;6.674;2023-08-30T02:03:31;100165.69;;;14.62;100.00
47753;BME280;2038;51.728;6.674;2023-08-30T02:06:05;100165.81;;;14.65;100.00
47753;BME280;2038;51.728;6.674;2023-08-30T02:08:38;100161.69;;;14.68;100.00
47753;BME280;2038;51.728;6.674;2023-08-30T02:11:14;100166.75;;;14.67;100.00
47753;BME280;2038;51.728;6.674;2023-08-30T02:13:46;100164.97;;;14.64;100.00
47753;BME280;2038;51.728;6.674;2023-08-30T02:16:13;100162.41;;;14.64;100.00
47753;BME280;2038;51.728;6.674;2023-08-30T02:18:42;100159.88;;;14.66;100.00
47753;BME280;2038;51.728;6.674;2023-08-30T02:21:08;100162.41;;;14.64;100.00
47753;BME280;2038;51.728;6.674;2023-08-30T02:23:35;100162.31;;;14.63;100.00
47753;BME280;2038;51.728;6.674;2023-08-30T02:26:02;100163.94;;;14.61;100.00
47753;BME280;2038;51.728;6.674;2023-08-30T02:28:31;100165.75;;;14.63;100.00
47753;BME280;2038;51.728;6.674;2023-08-30T02:30:57;100167.63;;;14.67;100.00
47753;BME280;2038;51.728;6.674;2023-08-30T02:33:24;100166.88;;;14.70;100.00
47753;BME280;2038;51.728;6.674;2023-08-30T02:35:50;100160.81;;;14.68;100.00
47753;BME280;2038;51.728;6.674;2023-08-30T02:38:16;100159.00;;;14.65;100.00
47753;BME280;2038;51.728;6.674;2023-08-30T02:40:43;100164.19;;;14.67;100.00
47753;BME280;2038;51.728;6.674;2023-08-30T02:43:09;100162.41;;;14.64;100.00
47753;BME280;2038;51.728;6.674;2023-08-30T02:45:36;100161.56;;;14.65;100.00
47753;BME280;2038;51.728;6.674;2023-08-30T02:48:02;100154.69;;;14.64;100.00
47753;BME280;2038;51.728;6.674;2023-08-30T02:50:29;100164.13;;;14.65;100.00
47753;BME280;2038;51.728;6.674;2023-08-30T02:52:55;100160.69;;;14.65;100.00
47753;BME280;2038;51.728;6.674;2023-08-30T02:55:21;100157.97;;;14.60;100.00
47753;BME280;2038;51.728;6.674;2023-08-30T02:57:47;100152.75;;;14.59;100.00
47753;BME280;2038;51.728;6.674;2023-08-30T03:00:14;100153.53;;;14.56;100.00
47753;BME280;2038;51.728;6.674;2023-08-30T03:02:41;100151.06;;;14.59;100.00
47753;BME280;2038;51.728;6.674;2023-08-30T03:05:07;100139.84;;;14.57;100.00
47753;BME280;2038;51.728;6.674;2023-08-30T03:07:33;100138.13;;;14.56;100.00
47753;BME280;2038;51.728;6.674;2023-08-30T03:10:00;100137.28;;;14.57;100.00
47753;BME280;2038;51.728;6.674;2023-08-30T03:12:26;100122.69;;;14.55;100.00
47753;BME280;2038;51.728;6.674;2023-08-30T03:14:53;100130.47;;;14.58;100.00
47753;BME280;2038;51.728;6.674;2023-08-30T03:17:19;100131.47;;;14.61;100.00
47753;BME280;2038;51.728;6.674;2023-08-30T03:19:46;100126.31;;;14.60;100.00
47753;BME280;2038;51.728;6.674;2023-08-30T03:22:12;100131.44;;;14.60;100.00
47753;BME280;2038;51.728;6.674;2023-08-30T03:24:38;100121.91;;;14.57;100.00
47753;BME280;2038;51.728;6.674;2023-08-30T03:27:05;100128.91;;;14.61;100.00
47753;BME280;2038;51.728;6.674;2023-08-30T03:29:31;100126.50;;;14.64;100.00
47753;BME280;2038;51.728;6.674;2023-08-30T03:31:57;100118.78;;;14.64;100.00
47753;BME280;2038;51.728;6.674;2023-08-30T03:34:23;100118.84;;;14.66;100.00
47753;BME280;2038;51.728;6.674;2023-08-30T03:36:50;100115.47;;;14.67;100.00
47753;BME280;2038;51.728;6.674;2023-08-30T03:39:20;100118.91;;;14.67;100.00
47753;BME280;2038;51.728;6.674;2023-08-30T03:41:47;100114.69;;;14.69;100.00
47753;BME280;2038;51.728;6.674;2023-08-30T03:44:13;100108.81;;;14.72;100.00
47753;BME280;2038;51.728;6.674;2023-08-30T03:46:39;100112.28;;;14.72;100.00
47753;BME280;2038;51.728;6.674;2023-08-30T03:49:06;100113.28;;;14.77;100.00
47753;BME280;2038;51.728;6.674;2023-08-30T03:51:32;100108.31;;;14.80;100.00
47753;BME280;2038;51.728;6.674;2023-08-30T03:53:58;100106.72;;;14.84;100.00
47753;BME280;2038;51.728;6.674;2023-08-30T03:56:24;100101.59;;;14.84;100.00
47753;BME280;2038;51.728;6.674;2023-08-30T03:58:51;100100.59;;;14.80;100.00
47753;BME280;2038;51.728;6.674;2023-08-30T04:01:17;100096.31;;;14.81;100.00
47753;BME280;2038;51.728;6.674;2023-08-30T04:03:43;100091.84;;;14.75;100.00
47753;BME280;2038;51.728;6.674;2023-08-30T04:06:10;100098.69;;;14.75;100.00
47753;BME280;2038;51.728;6.674;2023-08-30T04:08:36;100094.31;;;14.72;100.00
47753;BME280;2038;51.728;6.674;2023-08-30T04:11:02;100100.25;;;14.71;100.00
47753;BME280;2038;51.728;6.674;2023-08-30T04:13:28;100093.44;;;14.72;100.00
47753;BME280;2038;51.728;6.674;2023-08-30T04:15:54;100084.63;;;14.65;100.00
47753;BME280;2038;51.728;6.674;2023-08-30T04:18:24;100088.03;;;14.64;100.00
47753;BME280;2038;51.728;6.674;2023-08-30T04:20:50;100084.28;;;14.56;100.00
47753;BME280;2038;51.728;6.674;2023-08-30T04:23:16;100077.50;;;14.58;100.00
47753;BME280;2038;51.728;6.674;2023-08-30T04:25:44;100074.06;;;14.58;100.00
47753;BME280;2038;51.728;6.674;2023-08-30T04:28:11;100070.59;;;14.56;100.00
47753;BME280;2038;51.728;6.674;2023-08-30T04:30:38;100074.66;;;14.50;100.00
47753;BME280;2038;51.728;6.674;2023-08-30T04:33:05;100058.91;;;14.41;100.00
47753;BME280;2038;51.728;6.674;2023-08-30T04:35:31;100058.03;;;14.41;100.00
47753;BME280;2038;51.728;6.674;2023-08-30T04:37:59;100052.78;;;14.38;100.00
47753;BME280;2038;51.728;6.674;2023-08-30T04:40:26;100056.81;;;14.33;100.00
47753;BME280;2038;51.728;6.674;2023-08-30T04:42:52;100060.16;;;14.30;100.00
47753;BME280;2038;51.728;6.674;2023-08-30T04:45:18;100049.78;;;14.27;100.00
47753;BME280;2038;51.728;6.674;2023-08-30T04:47:45;100049.59;;;14.23;100.00
47753;BME280;2038;51.728;6.674;2023-08-30T04:50:11;100042.69;;;14.20;100.00
47753;BME280;2038;51.728;6.674;2023-08-30T04:52:37;100045.16;;;14.19;100.00
47753;BME280;2038;51.728;6.674;2023-08-30T04:55:04;100037.59;;;14.22;100.00
47753;BME280;2038;51.728;6.674;2023-08-30T04:57:31;100038.28;;;14.18;100.00
47753;BME280;2038;51.728;6.674;2023-08-30T04:59:57;100033.13;;;14.16;100.00
47753;BME280;2038;51.728;6.674;2023-08-30T05:02:24;100034.81;;;14.16;100.00
47753;BME280;2038;51.728;6.674;2023-08-30T05:04:50;100027.91;;;14.15;100.00
47753;BME280;2038;51.728;6.674;2023-08-30T05:07:17;100031.25;;;14.12;100.00
47753;BME280;2038;51.728;6.674;2023-08-30T05:09:43;100034.63;;;14.11;100.00
47753;BME280;2038;51.728;6.674;2023-08-30T05:12:09;100026.06;;;14.11;100.00
47753;BME280;2038;51.728;6.674;2023-08-30T05:14:35;100026.06;;;14.11;100.00
47753;BME280;2038;51.728;6.674;2023-08-30T05:17:02;100021.69;;;14.08;100.00
47753;BME280;2038;51.728;6.674;2023-08-30T05:19:28;100022.53;;;14.08;100.00
47753;BME280;2038;51.728;6.674;2023-08-30T05:21:54;100022.53;;;14.08;100.00
47753;BME280;2038;51.728;6.674;2023-08-30T05:24:21;100028.63;;;14.11;100.00
47753;BME280;2038;51.728;6.674;2023-08-30T05:26:48;100031.09;;;14.09;100.00
47753;BME280;2038;51.728;6.674;2023-08-30T05:29:15;100031.09;;;14.09;100.00
47753;BME280;2038;51.728;6.674;2023-08-30T05:31:41;100026.06;;;14.11;100.00
47753;BME280;2038;51.728;6.674;2023-08-30T05:34:09;100031.28;;;14.14;100.00
47753;BME280;2038;51.728;6.674;2023-08-30T05:36:36;100027.91;;;14.15;100.00
47753;BME280;2038;51.728;6.674;2023-08-30T05:39:03;100021.22;;;14.18;100.00
47753;BME280;2038;51.728;6.674;2023-08-30T05:41:29;100025.59;;;14.21;100.00
47753;BME280;2038;51.728;6.674;2023-08-30T05:43:56;100011.97;;;14.22;100.00
47753;BME280;2038;51.728;6.674;2023-08-30T05:46:22;100011.34;;;14.27;100.00
47753;BME280;2038;51.728;6.674;2023-08-30T05:48:49;100009.13;;;14.36;100.00
47753;BME280;2038;51.728;6.674;2023-08-30T05:51:15;100005.75;;;14.37;100.00
47753;BME280;2038;51.728;6.674;2023-08-30T05:53:41;100007.88;;;14.47;100.00
47753;BME280;2038;51.728;6.674;2023-08-30T05:56:08;100004.66;;;14.53;100.00
47753;BME280;2038;51.728;6.674;2023-08-30T05:58:34;100002.34;;;14.59;100.00
47753;BME280;2038;51.728;6.674;2023-08-30T06:01:01;100000.94;;;14.67;100.00
47753;BME280;2038;51.728;6.674;2023-08-30T06:03:28;99997.69;;;14.73;100.00
47753;BME280;2038;51.728;6.674;2023-08-30T06:05:55;99990.25;;;14.79;100.00
47753;BME280;2038;51.728;6.674;2023-08-30T06:08:21;99992.88;;;14.80;100.00
47753;BME280;2038;51.728;6.674;2023-08-30T06:10:47;99993.72;;;14.81;100.00
47753;BME280;2038;51.728;6.674;2023-08-30T06:13:13;99977.75;;;14.88;100.00
47753;BME280;2038;51.728;6.674;2023-08-30T06:15:39;99979.63;;;14.93;100.00
47753;BME280;2038;51.728;6.674;2023-08-30T06:18:06;99972.16;;;14.99;100.00
47753;BME280;2038;51.728;6.674;2023-08-30T06:20:32;99974.94;;;15.06;100.00
47753;BME280;2038;51.728;6.674;2023-08-30T06:23:02;99982.88;;;15.12;100.00
47753;BME280;2038;51.728;6.674;2023-08-30T06:25:29;99988.03;;;15.13;100.00
47753;BME280;2038;51.728;6.674;2023-08-30T06:27:57;99989.06;;;15.18;100.00
47753;BME280;2038;51.728;6.674;2023-08-30T06:30:25;99977.31;;;15.25;100.00
47753;BME280;2038;51.728;6.674;2023-08-30T06:32:52;99980.91;;;15.30;100.00
47753;BME280;2038;51.728;6.674;2023-08-30T06:35:18;99978.56;;;15.36;100.00
47753;BME280;2038;51.728;6.674;2023-08-30T06:37:44;99981.22;;;15.39;100.00
47753;BME280;2038;51.728;6.674;2023-08-30T06:40:10;99984.13;;;15.48;100.00
47753;BME280;2038;51.728;6.674;2023-08-30T06:42:37;99982.00;;;15.60;100.00
47753;BME280;2038;51.728;6.674;2023-08-30T06:45:04;99983.22;;;15.73;100.00
47753;BME280;2038;51.728;6.674;2023-08-30T06:47:31;99976.78;;;15.84;100.00
47753;BME280;2038;51.728;6.674;2023-08-30T06:49:57;99979.72;;;15.96;100.00
47753;BME280;2038;51.728;6.674;2023-08-30T06:52:23;99980.13;;;16.10;100.00
47753;BME280;2038;51.728;6.674;2023-08-30T06:54:50;99971.09;;;16.22;100.00
47753;BME280;2038;51.728;6.674;2023-08-30T06:57:16;99976.66;;;16.36;100.00
47753;BME280;2038;51.728;6.674;2023-08-30T06:59:42;99972.50;;;16.41;100.00
47753;BME280;2038;51.728;6.674;2023-08-30T07:02:08;99977.03;;;16.48;100.00
47753;BME280;2038;51.728;6.674;2023-08-30T07:04:35;99966.81;;;16.51;100.00
47753;BME280;2038;51.728;6.674;2023-08-30T07:07:01;99967.84;;;16.56;100.00
47753;BME280;2038;51.728;6.674;2023-08-30T07:09:27;99971.16;;;16.52;100.00
47753;BME280;2038;51.728;6.674;2023-08-30T07:11:58;99962.88;;;16.62;100.00
47753;BME280;2038;51.728;6.674;2023-08-30T07:14:24;99953.53;;;16.66;100.00
47753;BME280;2038;51.728;6.674;2023-08-30T07:16:52;99956.47;;;16.78;100.00
47753;BME280;2038;51.728;6.674;2023-08-30T07:19:18;99953.31;;;16.88;100.00
47753;BME280;2038;51.728;6.674;2023-08-30T07:21:44;99948.53;;;17.02;100.00
47753;BME280;2038;51.728;6.674;2023-08-30T07:24:11;99947.13;;;17.13;100.00
47753;BME280;2038;51.728;6.674;2023-08-30T07:26:37;99955.19;;;17.26;100.00
47753;BME280;2038;51.728;6.674;2023-08-30T07:29:04;99946.84;;;17.35;100.00
47753;BME280;2038;51.728;6.674;2023-08-30T07:31:31;99943.69;;;17.45;100.00
47753;BME280;2038;51.728;6.674;2023-08-30T07:33:58;99939.88;;;17.64;100.00
47753;BME280;2038;51.728;6.674;2023-08-30T07:36:29;99947.00;;;17.75;100.00
47753;BME280;2038;51.728;6.674;2023-08-30T07:38:55;99944.78;;;17.89;100.00
47753;BME280;2038;51.728;6.674;2023-08-30T07:41:22;99946.47;;;17.89;100.00
47753;BME280;2038;51.728;6.674;2023-08-30T07:43:48;99952.59;;;17.94;100.00
47753;BME280;2038;51.728;6.674;2023-08-30T07:46:14;99948.41;;;17.99;100.00
47753;BME280;2038;51.728;6.674;2023-08-30T07:48:40;99953.63;;;18.02;100.00
47753;BME280;2038;51.728;6.674;2023-08-30T07:51:07;99951.06;;;18.02;100.00
47753;BME280;2038;51.728;6.674;2023-08-30T07:53:33;99941.88;;;18.13;100.00
47753;BME280;2038;51.728;6.674;2023-08-30T07:55:59;99948.03;;;18.19;100.00
47753;BME280;2038;51.728;6.674;2023-08-30T07:58:25;99950.56;;;18.18;100.00
47753;BME280;2038;51.728;6.674;2023-08-30T08:00:53;99955.00;;;18.23;100.00
47753;BME280;2038;51.728;6.674;2023-08-30T08:03:23;99950.81;;;18.29;100.00
47753;BME280;2038;51.728;6.674;2023-08-30T08:05:49;99953.22;;;18.21;100.00
47753;BME280;2038;51.728;6.674;2023-08-30T08:08:15;99960.88;;;18.18;100.00
47753;BME280;2038;51.728;6.674;2023-08-30T08:10:43;99954.94;;;18.22;100.00
47753;BME280;2038;51.728;6.674;2023-08-30T08:13:09;99956.13;;;17.97;100.00
47753;BME280;2038;51.728;6.674;2023-08-30T08:15:36;99952.75;;;18.00;100.00
47753;BME280;2038;51.728;6.674;2023-08-30T08:18:02;99958.66;;;17.96;100.00
47753;BME280;2038;51.728;6.674;2023-08-30T08:20:30;99957.72;;;17.92;100.00
47753;BME280;2038;51.728;6.674;2023-08-30T08:22:56;99956.03;;;17.93;100.00
47753;BME280;2038;51.728;6.674;2023-08-30T08:25:23;99955.25;;;17.97;100.00
47753;BME280;2038;51.728;6.674;2023-08-30T08:27:49;99964.22;;;17.76;100.00
47753;BME280;2038;51.728;6.674;2023-08-30T08:30:17;99960.13;;;17.85;100.00
47753;BME280;2038;51.728;6.674;2023-08-30T08:32:45;99965.19;;;17.82;100.00
47753;BME280;2038;51.728;6.674;2023-08-30T08:35:11;99962.72;;;17.85;100.00
47753;BME280;2038;51.728;6.674;2023-08-30T08:37:37;99967.69;;;17.78;100.00
47753;BME280;2038;51.728;6.674;2023-08-30T08:40:04;99964.22;;;17.76;100.00
47753;BME280;2038;51.728;6.674;2023-08-30T08:42:35;99955.63;;;17.77;100.00
47753;BME280;2038;51.728;6.674;2023-08-30T08:45:05;99958.31;;;17.81;100.00
47753;BME280;2038;51.728;6.674;2023-08-30T08:47:33;99948.50;;;17.66;100.00
47753;BME280;2038;51.728;6.674;2023-08-30T08:49:59;99942.81;;;17.45;100.00
47753;BME280;2038;51.728;6.674;2023-08-30T08:52:29;99943.47;;;17.38;100.00
47753;BME280;2038;51.728;6.674;2023-08-30T08:54:56;99942.50;;;17.34;100.00
47753;BME280;2038;51.728;6.674;2023-08-30T08:57:23;99936.41;;;17.30;100.00
47753;BME280;2038;51.728;6.674;2023-08-30T08:59:49;99936.16;;;17.20;100.00
47753;BME280;2038;51.728;6.674;2023-08-30T09:02:16;99937.16;;;17.25;100.00
47753;BME280;2038;51.728;6.674;2023-08-30T09:04:44;99938.56;;;17.14;100.00
47753;BME280;2038;51.728;6.674;2023-08-30T09:07:10;99941.81;;;17.07;100.00
47753;BME280;2038;51.728;6.674;2023-08-30T09:09:37;99938.44;;;17.09;100.00
47753;BME280;2038;51.728;6.674;2023-08-30T09:12:03;99931.13;;;16.93;100.00
47753;BME280;2038;51.728;6.674;2023-08-30T09:14:30;99930.38;;;16.96;100.00
47753;BME280;2038;51.728;6.674;2023-08-30T09:17:00;99936.34;;;16.95;100.00
47753;BME280;2038;51.728;6.674;2023-08-30T09:19:28;99936.19;;;16.89;100.00
47753;BME280;2038;51.728;6.674;2023-08-30T09:21:57;99935.06;;;16.79;100.00
47753;BME280;2038;51.728;6.674;2023-08-30T09:24:24;99933.69;;;16.60;100.00
47753;BME280;2038;51.728;6.674;2023-08-30T09:26:55;99937.47;;;16.73;100.00
47753;BME280;2038;51.728;6.674;2023-08-30T09:29:22;99932.75;;;16.58;100.00
47753;BME280;2038;51.728;6.674;2023-08-30T09:31:52;99934.06;;;16.46;100.00
47753;BME280;2038;51.728;6.674;2023-08-30T09:34:23;99917.53;;;16.36;100.00
47753;BME280;2038;51.728;6.674;2023-08-30T09:36:52;99918.13;;;16.27;100.00
47753;BME280;2038;51.728;6.674;2023-08-30T09:39:19;99920.78;;;16.30;100.00
47753;BME280;2038;51.728;6.674;2023-08-30T09:41:50;99916.31;;;16.25;100.00
47753;BME280;2038;51.728;6.674;2023-08-30T09:44:18;99913.81;;;16.26;100.00
47753;BME280;2038;51.728;6.674;2023-08-30T09:46:54;99915.56;;;16.27;100.00
47753;BME280;2038;51.728;6.674;2023-08-30T09:49:26;99906.75;;;16.19;100.00
47753;BME280;2038;51.728;6.674;2023-08-30T09:51:54;99907.56;;;16.18;100.00
47753;BME280;2038;51.728;6.674;2023-08-30T09:54:25;99894.25;;;16.03;100.00
47753;BME280;2038;51.728;6.674;2023-08-30T09:56:51;99893.22;;;15.97;100.00
47753;BME280;2038;51.728;6.674;2023-08-30T09:59:22;99895.78;;;15.97;100.00
47753;BME280;2038;51.728;6.674;2023-08-30T10:01:50;99893.22;;;15.97;100.00
47753;BME280;2038;51.728;6.674;2023-08-30T10:04:21;99889.78;;;15.96;100.00
47753;BME280;2038;51.728;6.674;2023-08-30T10:06:49;99884.41;;;15.88;100.00
47753;BME280;2038;51.728;6.674;2023-08-30T10:09:17;99889.56;;;15.88;100.00
47753;BME280;2038;51.728;6.674;2023-08-30T10:11:45;99885.25;;;15.89;100.00
47753;BME280;2038;51.728;6.674;2023-08-30T10:14:13;99886.09;;;15.88;100.00
47753;BME280;2038;51.728;6.674;2023-08-30T10:16:44;99892.16;;;15.90;100.00
47753;BME280;2038;51.728;6.674;2023-08-30T10:21:47;99880.84;;;15.85;100.00
47753;BME280;2038;51.728;6.674;2023-08-30T10:24:20;99892.13;;;15.88;100.00
47753;BME280;2038;51.728;6.674;2023-08-30T10:26:49;99889.41;;;15.84;100.00
47753;BME280;2038;51.728;6.674;2023-08-30T10:29:17;99901.38;;;15.83;100.00
47753;BME280;2038;51.728;6.674;2023-08-30T10:31:45;99896.91;;;15.78;100.00
47753;BME280;2038;51.728;6.674;2023-08-30T10:34:17;99894.53;;;15.84;100.00
47753;BME280;2038;51.728;6.674;2023-08-30T10:36:45;99898.81;;;15.83;100.00
47753;BME280;2038;51.728;6.674;2023-08-30T10:39:33;99899.53;;;15.79;100.00
47753;BME280;2038;51.728;6.674;2023-08-30T10:42:07;99908.22;;;15.83;100.00
47753;BME280;2038;51.728;6.674;2023-08-30T10:44:35;99901.28;;;15.80;100.00
47753;BME280;2038;51.728;6.674;2023-08-30T10:47:19;99901.41;;;15.85;100.00
47753;BME280;2038;51.728;6.674;2023-08-30T10:49:49;99895.66;;;15.92;100.00
47753;BME280;2038;51.728;6.674;2023-08-30T10:52:16;99890.66;;;15.97;100.00
47753;BME280;2038;51.728;6.674;2023-08-30T10:54:42;99892.97;;;15.89;100.00
47753;BME280;2038;51.728;6.674;2023-08-30T10:57:19;99895.31;;;15.81;100.00
47753;BME280;2038;51.728;6.674;2023-08-30T11:00:06;99887.75;;;15.86;100.00
47753;BME280;2038;51.728;6.674;2023-08-30T11:02:36;99881.78;;;15.87;100.00
47753;BME280;2038;51.728;6.674;2023-08-30T11:05:05;99887.72;;;15.84;100.00
47753;BME280;2038;51.728;6.674;2023-08-30T11:07:32;99890.16;;;15.81;100.00
47753;BME280;2038;51.728;6.674;2023-08-30T11:09:59;99880.81;;;15.83;100.00
47753;BME280;2038;51.728;6.674;2023-08-30T11:12:25;99885.22;;;15.87;100.00
47753;BME280;2038;51.728;6.674;2023-08-30T11:14:54;99863.97;;;15.93;100.00
47753;BME280;2038;51.728;6.674;2023-08-30T11:17:22;99858.59;;;15.85;100.00
47753;BME280;2038;51.728;6.674;2023-08-30T11:20:04;99855.50;;;15.96;100.00
47753;BME280;2038;51.728;6.674;2023-08-30T11:22:43;99853.56;;;16.17;100.00
47753;BME280;2038;51.728;6.674;2023-08-30T11:25:11;99864.06;;;16.24;100.00
47753;BME280;2038;51.728;6.674;2023-08-30T11:27:39;99870.00;;;16.23;100.00
47753;BME280;2038;51.728;6.674;2023-08-30T11:30:10;99870.34;;;16.35;100.00
47753;BME280;2038;51.728;6.674;2023-08-30T11:32:38;99871.44;;;16.44;100.00
47753;BME280;2038;51.728;6.674;2023-08-30T11:35:06;99872.34;;;16.46;100.00
47753;BME280;2038;51.728;6.674;2023-08-30T11:37:33;99876.16;;;16.58;100.00
47753;BME280;2038;51.728;6.674;2023-08-30T11:40:03;99874.28;;;16.54;100.00
47753;BME280;2038;51.728;6.674;2023-08-30T11:42:32;99867.81;;;16.67;100.00
47753;BME280;2038;51.728;6.674;2023-08-30T11:44:58;99875.28;;;16.58;100.00
47753;BME280;2038;51.728;6.674;2023-08-30T11:47:26;99875.03;;;16.50;100.00
47753;BME280;2038;51.728;6.674;2023-08-30T11:49:55;99868.16;;;16.49;100.00
47753;BME280;2038;51.728;6.674;2023-08-30T11:52:23;99857.09;;;16.53;100.00
47753;BME280;2038;51.728;6.674;2023-08-30T11:54:54;99862.75;;;16.70;100.00
47753;BME280;2038;51.728;6.674;2023-08-30T11:57:23;99857.38;;;16.94;100.00
47753;BME280;2038;51.728;6.674;2023-08-30T11:59:51;99861.09;;;17.05;100.00
47753;BME280;2038;51.728;6.674;2023-08-30T12:02:18;99855.53;;;17.22;100.00
47753;BME280;2038;51.728;6.674;2023-08-30T12:04:46;99862.66;;;17.33;100.00
47753;BME280;2038;51.728;6.674;2023-08-30T12:07:26;99863.66;;;17.39;100.00
47753;BME280;2038;51.728;6.674;2023-08-30T12:09:52;99864.66;;;17.44;100.00
47753;BME280;2038;51.728;6.674;2023-08-30T12:12:29;99861.97;;;17.40;100.00
47753;BME280;2038;51.728;6.674;2023-08-30T12:14:56;99876.34;;;17.31;100.00
47753;BME280;2038;51.728;6.674;2023-08-30T12:17:23;99866.16;;;17.36;100.00
47753;BME280;2038;51.728;6.674;2023-08-30T12:19:56;99861.84;;;17.35;100.00
47753;BME280;2038;51.728;6.674;2023-08-30T12:22:23;99858.66;;;17.45;100.00
47753;BME280;2038;51.728;6.674;2023-08-30T12:24:49;99853.47;;;17.44;100.00
47753;BME280;2038;51.728;6.674;2023-08-30T12:27:15;99853.50;;;17.45;100.00
47753;BME280;2038;51.728;6.674;2023-08-30T12:29:42;99857.78;;;17.45;100.00
47753;BME280;2038;51.728;6.674;2023-08-30T12:32:08;99836.91;;;17.33;100.00
47753;BME280;2038;51.728;6.674;2023-08-30T12:34:35;99851.28;;;17.24;100.00
47753;BME280;2038;51.728;6.674;2023-08-30T12:37:01;99856.84;;;17.41;100.00
47753;BME280;2038;51.728;6.674;2023-08-30T12:39:29;99854.19;;;17.38;100.00
47753;BME280;2038;51.728;6.674;2023-08-30T12:41:55;99847.63;;;17.51;100.00
47753;BME280;2038;51.728;6.674;2023-08-30T12:44:21;99848.91;;;17.68;100.00
47753;BME280;2038;51.728;6.674;2023-08-30T12:46:48;99841.28;;;17.72;100.00
47753;BME280;2038;51.728;6.674;2023-08-30T12:49:14;99843.56;;;17.99;100.00
47753;BME280;2038;51.728;6.674;2023-08-30T12:51:40;99838.97;;;18.27;100.00
47753;BME280;2038;51.728;6.674;2023-08-30T12:54:06;99831.56;;;18.43;100.00
47753;BME280;2038;51.728;6.674;2023-08-30T12:56:33;99838.69;;;18.55;100.00
47753;BME280;2038;51.728;6.674;2023-08-30T12:59:00;99833.66;;;18.61;100.00
47753;BME280;2038;51.728;6.674;2023-08-30T13:01:26;99829.53;;;18.70;100.00